Time;durP1;ratioP1;P1;durP2;ratioP2;P2;SDS_P1;SDS_P2;PMS_P1;PMS_P2;Temp;Humidity;BMP_temperature;BMP_pressure;BME280_temperature;BME280_humidity;BME280_pressure;Samples;Min_cycle;Max_cycle;Signal;HPM_P1;HPM_P2
2023/07/24 00:00:01;;;;;;;;;;;;;;;27.52;48.15;99652.63;350611;28;852;-78
2023/07/24 00:00:11;;;;;;;;;;;;;;;27.54;47.76;99646.06;350560;28;1256;-78
2023/07/24 00:00:21;;;;;;;;;;;;;;;27.56;47.55;99646.72;351928;28;1209;-78
2023/07/24 00:00:33;;;;;;;;;;;;;;;27.57;47.84;99647.56;350635;28;866;-78
2023/07/24 00:00:44;;;;;;;;;;;;;;;27.59;47.78;99650.97;351145;28;1045;-78
2023/07/24 00:00:54;;;;;;;;;;;;;;;27.62;47.58;99647.94;350259;28;1123;-78
2023/07/24 00:01:04;;;;;;;;;;;;;;;27.63;47.81;99646.91;350546;28;1112;-78
2023/07/24 00:01:14;;;;;;;;;;;;;;;27.64;48.09;99646.75;350392;28;1357;-78
2023/07/24 00:01:25;;;;;;;;;;;;;;;27.58;47.81;99643.88;349336;28;1196;-78
2023/07/24 00:01:35;;;;;;;;;;;;;;;27.52;47.93;99652.63;347970;28;1392;-78
2023/07/24 00:01:45;;;;;;;;;;;;;;;27.49;47.96;99643.03;345114;28;1265;-78
2023/07/24 00:01:55;;;;;;;;;;;;;;;27.49;47.97;99649.25;345941;28;1189;-78
2023/07/24 00:02:06;;;;;;;;;;;;;;;27.47;47.97;99650.44;349378;28;777;-78
2023/07/24 00:02:16;;;;;;;;;;;;;;;27.45;48.10;99645.22;346572;28;1210;-78
2023/07/24 00:02:26;;;;;;;;;;;;;;;27.45;48.11;99647.91;346874;28;1218;-78
2023/07/24 00:02:36;;;;;;;;;;;;;;;27.46;48.27;99644.22;347952;28;975;-78
2023/07/24 00:02:46;;;;;;;;;;;;;;;27.47;48.06;99650.44;349263;28;851;-78
2023/07/24 00:02:57;;;;;;;;;;;;;;;27.48;48.16;99647.56;347690;28;887;-78
2023/07/24 00:03:07;;;;;;;;;;;;;;;27.49;47.80;99649.25;348045;28;1237;-78
2023/07/24 00:03:17;;;;;;;;;;;;;;;27.50;47.92;99650.09;349299;28;1339;-78
2023/07/24 00:03:27;;;;;;;;;;;;;;;27.50;48.20;99645.56;345675;28;1245;-78
2023/07/24 00:03:38;;;;;;;;;;;;;;;27.50;47.88;99645.56;345270;28;1182;-78
2023/07/24 00:03:48;;;;;;;;;;;;;;;27.49;48.17;99641.19;347949;28;1288;-78
2023/07/24 00:03:59;;;;;;;;;;;;;;;27.50;48.09;99642.88;346433;28;1160;-78
2023/07/24 00:04:09;;;;;;;;;;;;;;;27.49;47.64;99638.50;347583;28;1222;-78
2023/07/24 00:04:19;;;;;;;;;;;;;;;27.48;48.08;99644.06;349290;28;1183;-78
2023/07/24 00:04:32;;;;;;;;;;;;;;;27.48;47.76;99636.81;349031;28;1582;-78
2023/07/24 00:04:42;;;;;;;;;;;;;;;27.47;48.05;99640.53;347965;28;1335;-78
2023/07/24 00:04:52;;;;;;;;;;;;;;;27.46;47.98;99643.38;347727;28;1316;-78
2023/07/24 00:05:03;;;;;;;;;;;;;;;27.46;48.04;99646.91;346575;28;983;-78
2023/07/24 00:05:13;;;;;;;;;;;;;;;27.47;47.82;99647.75;343506;28;1351;-78
2023/07/24 00:05:23;;;;;;;;;;;;;;;27.48;48.08;99638.66;342260;28;1435;-78
2023/07/24 00:05:34;;;;;;;;;;;;;;;27.51;48.12;99635.66;340989;29;1244;-78
2023/07/24 00:05:44;;;;;;;;;;;;;;;27.54;48.13;99639.84;342872;28;1352;-78
2023/07/24 00:05:57;;;;;;;;;;;;;;;27.55;48.14;99641.53;342409;28;1645;-78
2023/07/24 00:06:07;;;;;;;;;;;;;;;27.55;47.99;99642.34;338657;29;1469;-78
2023/07/24 00:06:17;;;;;;;;;;;;;;;27.52;48.25;99644.56;341112;29;1250;-78
2023/07/24 00:06:28;;;;;;;;;;;;;;;27.51;48.16;99641.03;342446;28;1350;-78
2023/07/24 00:06:38;;;;;;;;;;;;;;;27.50;47.94;99645.56;343806;28;1205;-78
2023/07/24 00:06:48;;;;;;;;;;;;;;;27.53;47.88;99646.22;341366;29;1182;-78
2023/07/24 00:06:59;;;;;;;;;;;;;;;27.49;48.10;99646.56;338720;29;1064;-78
2023/07/24 00:07:09;;;;;;;;;;;;;;;27.46;48.37;99646.06;335687;29;1328;-78
2023/07/24 00:07:20;;;;;;;;;;;;;;;27.43;48.32;99647.25;334664;29;768;-78
2023/07/24 00:07:30;;;;;;;;;;;;;;;27.42;48.42;99648.25;336352;29;1883;-78
2023/07/24 00:07:40;;;;;;;;;;;;;;;27.39;48.67;99643.22;337742;29;1912;-78
2023/07/24 00:07:50;;;;;;;;;;;;;;;27.38;48.37;99644.22;339932;29;849;-78
2023/07/24 00:08:01;;;;;;;;;;;;;;;27.39;48.21;99643.22;333800;29;3809;-78
2023/07/24 00:08:11;;;;;;;;;;;;;;;27.36;48.37;99648.94;333150;29;3304;-78
2023/07/24 00:08:21;;;;;;;;;;;;;;;27.31;48.49;99643.22;331002;29;3052;-78
2023/07/24 00:08:31;;;;;;;;;;;;;;;27.30;48.84;99644.22;332112;29;1237;-78
2023/07/24 00:08:42;;;;;;;;;;;;;;;27.31;48.84;99645.06;332557;29;3291;-79
2023/07/24 00:08:52;;;;;;;;;;;;;;;27.30;48.67;99644.22;335858;29;1237;-79
2023/07/24 00:09:02;;;;;;;;;;;;;;;27.31;48.68;99650.44;333391;29;1264;-78
2023/07/24 00:09:13;;;;;;;;;;;;;;;27.33;48.48;99643.06;333112;29;1839;-78
2023/07/24 00:09:23;;;;;;;;;;;;;;;27.34;48.69;99644.72;328325;29;2063;-78
2023/07/24 00:09:33;;;;;;;;;;;;;;;27.27;48.71;99639.22;327146;30;1196;-78
2023/07/24 00:09:43;;;;;;;;;;;;;;;27.23;48.94;99645.94;328361;29;2416;-78
2023/07/24 00:09:56;;;;;;;;;;;;;;;27.17;48.98;99641.22;329953;29;2304;-78
2023/07/24 00:10:07;;;;;;;;;;;;;;;27.07;49.36;99640.56;329877;29;2207;-78
2023/07/24 00:10:17;;;;;;;;;;;;;;;27.04;49.18;99639.03;328824;30;1290;-78
2023/07/24 00:10:27;;;;;;;;;;;;;;;26.98;49.48;99639.72;328360;30;2426;-78
2023/07/24 00:10:38;;;;;;;;;;;;;;;26.97;48.95;99642.56;329603;29;1967;-78
2023/07/24 00:10:48;;;;;;;;;;;;;;;26.95;49.50;99647.22;328273;30;1186;-78
2023/07/24 00:10:58;;;;;;;;;;;;;;;26.95;49.50;99640.00;328136;30;1482;-78
2023/07/24 00:11:10;;;;;;;;;;;;;;;26.97;49.25;99647.94;328102;30;2179;-78
2023/07/24 00:11:20;;;;;;;;;;;;;;;26.95;49.51;99644.53;327266;30;1392;-79
2023/07/24 00:11:30;;;;;;;;;;;;;;;26.96;49.20;99647.09;320731;30;2496;-79
2023/07/24 00:11:40;;;;;;;;;;;;;;;26.96;49.23;99647.09;322071;30;2584;-78
2023/07/24 00:11:51;;;;;;;;;;;;;;;26.98;49.67;99649.63;323585;30;2698;-79
2023/07/24 00:12:01;;;;;;;;;;;;;;;26.97;49.20;99647.94;318843;31;1313;-79
2023/07/24 00:12:11;;;;;;;;;;;;;;;26.93;49.29;99647.38;316270;31;3401;-78
2023/07/24 00:12:22;;;;;;;;;;;;;;;26.89;49.36;99648.72;316075;30;2792;-78
2023/07/24 00:12:32;;;;;;;;;;;;;;;26.83;49.41;99647.56;316557;31;838;-77
2023/07/24 00:12:42;;;;;;;;;;;;;;;26.80;49.72;99647.91;312440;31;3227;-77
2023/07/24 00:12:52;;;;;;;;;;;;;;;26.80;49.69;99642.53;309961;31;2295;-77
2023/07/24 00:13:03;;;;;;;;;;;;;;;26.83;49.83;99652.94;312024;31;1245;-80
2023/07/24 00:13:13;;;;;;;;;;;;;;;26.87;49.41;99649.91;311661;31;1930;-80
2023/07/24 00:13:23;;;;;;;;;;;;;;;26.89;49.56;99650.56;310974;31;2886;-80
2023/07/24 00:13:34;;;;;;;;;;;;;;;26.86;49.66;99641.00;308659;32;1363;-78
2023/07/24 00:13:44;;;;;;;;;;;;;;;26.84;49.44;99654.63;309586;31;3874;-77
2023/07/24 00:13:54;;;;;;;;;;;;;;;26.82;49.42;99648.59;311931;31;4351;-77
2023/07/24 00:14:05;;;;;;;;;;;;;;;26.81;49.69;99654.97;312048;31;1230;-80
2023/07/24 00:14:15;;;;;;;;;;;;;;;26.79;49.70;99651.59;316471;31;5155;-79
2023/07/24 00:14:25;;;;;;;;;;;;;;;26.76;49.71;99657.31;316783;31;4363;-78
2023/07/24 00:14:36;;;;;;;;;;;;;;;26.72;49.79;99655.94;318686;31;3273;-78
2023/07/24 00:14:46;;;;;;;;;;;;;;;26.72;49.92;99653.25;318843;31;1226;-77
2023/07/24 00:14:56;;;;;;;;;;;;;;;26.74;49.93;99653.09;314575;31;3449;-78
2023/07/24 00:15:07;;;;;;;;;;;;;;;26.73;49.95;99651.41;312293;31;2802;-78
2023/07/24 00:15:17;;;;;;;;;;;;;;;26.66;49.88;99656.59;312138;31;764;-78
2023/07/24 00:15:27;;;;;;;;;;;;;;;26.61;50.22;99653.56;312578;31;2905;-78
2023/07/24 00:15:38;;;;;;;;;;;;;;;26.53;50.34;99650.84;311064;31;4439;-78
2023/07/24 00:15:48;;;;;;;;;;;;;;;26.45;50.45;99648.16;310977;31;918;-78
2023/07/24 00:15:59;;;;;;;;;;;;;;;26.36;50.65;99651.84;309719;31;5401;-78
2023/07/24 00:16:09;;;;;;;;;;;;;;;26.33;50.60;99654.84;306251;31;6074;-78
2023/07/24 00:16:19;;;;;;;;;;;;;;;26.32;50.96;99654.00;303534;32;837;-78
2023/07/24 00:16:29;;;;;;;;;;;;;;;26.30;50.93;99641.72;301594;32;7444;-78
2023/07/24 00:16:40;;;;;;;;;;;;;;;26.33;50.84;99653.00;302327;32;6447;-77
2023/07/24 00:16:50;;;;;;;;;;;;;;;26.38;50.72;99647.16;304462;32;1303;-77
2023/07/24 00:17:00;;;;;;;;;;;;;;;26.40;50.86;99645.13;303532;32;5748;-77
2023/07/24 00:17:10;;;;;;;;;;;;;;;26.42;50.48;99645.81;303860;32;5388;-79
2023/07/24 00:17:21;;;;;;;;;;;;;;;26.46;50.79;99645.31;302787;32;3531;-78
2023/07/24 00:17:31;;;;;;;;;;;;;;;26.52;50.55;99643.81;297093;33;5085;-78
2023/07/24 00:17:41;;;;;;;;;;;;;;;26.56;50.51;99650.53;300285;32;4711;-78
2023/07/24 00:17:51;;;;;;;;;;;;;;;26.58;50.48;99653.91;301985;32;6443;-78
2023/07/24 00:18:02;;;;;;;;;;;;;;;26.59;50.21;99644.84;298437;33;5545;-78
2023/07/24 00:18:12;;;;;;;;;;;;;;;26.60;50.37;99645.69;295374;33;7523;-78
2023/07/24 00:18:22;;;;;;;;;;;;;;;26.62;50.08;99647.19;294222;32;7729;-78
2023/07/24 00:18:32;;;;;;;;;;;;;;;26.65;50.36;99641.50;297259;33;843;-78
2023/07/24 00:18:42;;;;;;;;;;;;;;;26.58;50.26;99643.16;295893;33;11336;-78
2023/07/24 00:18:53;;;;;;;;;;;;;;;26.50;50.42;99645.81;293988;33;9106;-78
2023/07/24 00:19:03;;;;;;;;;;;;;;;26.47;50.39;99648.81;294251;33;1376;-78
2023/07/24 00:21:13;;;;;;;;;;;;;;;26.47;50.69;99648.81;2482719;27;19937;-77
2023/07/24 00:21:23;;;;;;;;;;;;;;;26.50;50.64;99643.13;350522;28;1263;-77
2023/07/24 00:21:33;;;;;;;;;;;;;;;26.50;50.92;99645.81;349075;28;764;-77
2023/07/24 00:21:44;;;;;;;;;;;;;;;26.49;50.73;99646.81;346326;28;1228;-78
2023/07/24 00:21:54;;;;;;;;;;;;;;;26.51;50.71;99644.81;343758;28;1358;-78
2023/07/24 00:22:04;;;;;;;;;;;;;;;26.46;50.87;99647.97;346356;28;1325;-78
2023/07/24 00:22:14;;;;;;;;;;;;;;;26.49;50.79;99641.44;347794;28;1311;-79
2023/07/24 00:22:26;;;;;;;;;;;;;;;26.52;50.34;99644.66;346680;28;1065;-82
2023/07/24 00:22:36;;;;;;;;;;;;;;;26.55;50.68;99646.16;345064;28;1253;-80
2023/07/24 00:22:46;;;;;;;;;;;;;;;26.53;50.58;99640.13;344968;28;1132;-78
2023/07/24 00:22:57;;;;;;;;;;;;;;;26.42;50.66;99641.28;346570;28;872;-78
2023/07/24 00:23:07;;;;;;;;;;;;;;;26.38;50.57;99647.16;346263;28;1324;-78
2023/07/24 00:23:17;;;;;;;;;;;;;;;26.38;50.67;99641.78;346272;28;1240;-78
2023/07/24 00:23:27;;;;;;;;;;;;;;;26.38;50.79;99639.94;343619;28;1310;-78
2023/07/24 00:23:38;;;;;;;;;;;;;;;26.40;50.71;99647.81;344485;28;1311;-77
2023/07/24 00:23:48;;;;;;;;;;;;;;;26.37;50.73;99650.84;346408;28;1328;-77
2023/07/24 00:23:58;;;;;;;;;;;;;;;26.33;50.88;99644.94;349104;28;1312;-77
2023/07/24 00:24:08;;;;;;;;;;;;;;;26.28;50.87;99641.03;347768;28;1220;-77
2023/07/24 00:24:19;;;;;;;;;;;;;;;26.23;51.33;99643.38;343691;28;1303;-77
2023/07/24 00:24:29;;;;;;;;;;;;;;;26.21;51.12;99645.38;346269;28;1305;-77
2023/07/24 00:24:39;;;;;;;;;;;;;;;26.19;51.28;99643.69;347477;28;1208;-77
2023/07/24 00:24:50;;;;;;;;;;;;;;;26.16;51.28;99649.38;347190;28;1181;-77
2023/07/24 00:25:00;;;;;;;;;;;;;;;26.14;51.18;99653.22;347413;28;1197;-77
2023/07/24 00:25:10;;;;;;;;;;;;;;;26.11;51.34;99651.69;346333;28;1110;-77
2023/07/24 00:25:20;;;;;;;;;;;;;;;26.07;51.48;99649.50;346975;28;1051;-77
2023/07/24 00:25:31;;;;;;;;;;;;;;;26.07;51.69;99650.34;346479;28;1259;-77
2023/07/24 00:25:41;;;;;;;;;;;;;;;26.06;51.78;99648.66;345031;28;1354;-77
2023/07/24 00:25:51;;;;;;;;;;;;;;;26.07;51.83;99639.59;344993;28;1240;-77
2023/07/24 00:26:01;;;;;;;;;;;;;;;26.09;51.73;99653.69;346358;28;1461;-77
2023/07/24 00:26:12;;;;;;;;;;;;;;;26.12;51.65;99645.31;346408;28;1315;-77
2023/07/24 00:26:22;;;;;;;;;;;;;;;26.10;51.69;99654.53;345109;28;1216;-77
2023/07/24 00:26:32;;;;;;;;;;;;;;;26.08;51.85;99652.00;345883;28;1745;-77
2023/07/24 00:26:42;;;;;;;;;;;;;;;26.07;51.95;99642.28;344900;28;3068;-77
2023/07/24 00:26:52;;;;;;;;;;;;;;;26.08;51.82;99648.50;345556;28;2732;-77
2023/07/24 00:27:03;;;;;;;;;;;;;;;26.09;52.15;99645.66;343175;28;3218;-77
2023/07/24 00:27:13;;;;;;;;;;;;;;;26.12;51.81;99645.31;344871;28;1608;-77
2023/07/24 00:27:24;;;;;;;;;;;;;;;26.13;51.68;99646.16;342197;28;1236;-77
2023/07/24 00:27:34;;;;;;;;;;;;;;;26.12;51.72;99645.31;341186;28;1340;-77
2023/07/24 00:27:44;;;;;;;;;;;;;;;26.15;51.69;99652.22;339730;29;1292;-77
2023/07/24 00:27:55;;;;;;;;;;;;;;;26.17;51.56;99643.00;338326;29;1295;-77
2023/07/24 00:28:05;;;;;;;;;;;;;;;26.19;51.69;99649.06;339592;29;865;-77
2023/07/24 00:28:15;;;;;;;;;;;;;;;26.22;51.73;99644.38;339613;29;1194;-77
2023/07/24 00:28:25;;;;;;;;;;;;;;;26.25;51.40;99646.72;336680;29;1232;-77
2023/07/24 00:28:35;;;;;;;;;;;;;;;26.25;51.60;99647.56;336384;29;1205;-77
2023/07/24 00:28:46;;;;;;;;;;;;;;;26.27;51.41;99645.56;336983;29;1385;-77
2023/07/24 00:28:56;;;;;;;;;;;;;;;26.27;51.57;99642.03;338177;29;937;-77
2023/07/24 00:29:06;;;;;;;;;;;;;;;26.30;51.44;99641.72;338174;29;1298;-77
2023/07/24 00:29:16;;;;;;;;;;;;;;;26.27;51.74;99642.03;338209;29;1498;-77
2023/07/24 00:29:27;;;;;;;;;;;;;;;26.25;52.00;99647.56;335816;29;1302;-77
2023/07/24 00:29:37;;;;;;;;;;;;;;;26.25;51.93;99641.34;335637;29;1322;-77
2023/07/24 00:29:47;;;;;;;;;;;;;;;26.26;51.72;99643.88;335608;29;1338;-77
2023/07/24 00:29:57;;;;;;;;;;;;;;;26.29;51.80;99648.94;335882;29;1191;-77
2023/07/24 00:30:08;;;;;;;;;;;;;;;26.32;51.73;99642.44;338061;29;1208;-77
2023/07/24 00:30:18;;;;;;;;;;;;;;;26.35;51.69;99642.94;338408;29;898;-77
2023/07/24 00:30:28;;;;;;;;;;;;;;;26.38;51.14;99642.63;335666;29;1302;-77
2023/07/24 00:30:39;;;;;;;;;;;;;;;26.41;51.40;99647.66;336998;29;1272;-77
2023/07/24 00:30:49;;;;;;;;;;;;;;;26.44;51.50;99649.16;334284;29;1295;-77
2023/07/24 00:30:59;;;;;;;;;;;;;;;26.46;51.47;99645.31;334663;29;859;-77
2023/07/24 00:31:09;;;;;;;;;;;;;;;26.48;51.38;99645.13;334263;29;1360;-77
2023/07/24 00:31:19;;;;;;;;;;;;;;;26.46;51.44;99641.78;331634;29;1555;-77
2023/07/24 00:31:30;;;;;;;;;;;;;;;26.44;51.47;99647.31;328961;30;1334;-77
2023/07/24 00:31:40;;;;;;;;;;;;;;;26.44;51.44;99641.94;331159;29;1757;-77
2023/07/24 00:31:50;;;;;;;;;;;;;;;26.42;51.86;99643.13;330869;29;2048;-77
2023/07/24 00:32:00;;;;;;;;;;;;;;;26.42;52.15;99643.97;333165;29;1233;-77
2023/07/24 00:32:11;;;;;;;;;;;;;;;26.41;52.09;99644.97;335196;29;2431;-77
2023/07/24 00:32:21;;;;;;;;;;;;;;;26.41;52.12;99644.97;334396;29;1563;-77
2023/07/24 00:32:31;;;;;;;;;;;;;;;26.42;51.92;99637.78;333369;29;1512;-77
2023/07/24 00:32:42;;;;;;;;;;;;;;;26.44;52.28;99658.03;335831;29;830;-77
2023/07/24 00:32:52;;;;;;;;;;;;;;;26.45;52.24;99638.25;334330;29;1223;-77
2023/07/24 00:33:02;;;;;;;;;;;;;;;26.46;52.21;99645.31;333945;29;1559;-77
2023/07/24 00:33:12;;;;;;;;;;;;;;;26.47;51.93;99643.47;332041;29;910;-77
2023/07/24 00:33:23;;;;;;;;;;;;;;;26.48;52.03;99640.59;331333;29;2184;-77
2023/07/24 00:33:33;;;;;;;;;;;;;;;26.50;52.12;99651.19;331123;29;2139;-77
2023/07/24 00:33:43;;;;;;;;;;;;;;;26.51;52.15;99648.34;331917;29;1233;-77
2023/07/24 00:33:53;;;;;;;;;;;;;;;26.52;51.94;99649.19;330238;29;2382;-77
2023/07/24 00:34:04;;;;;;;;;;;;;;;26.54;51.83;99651.69;327014;29;2583;-77
2023/07/24 00:34:14;;;;;;;;;;;;;;;26.55;51.99;99653.38;327154;30;769;-77
2023/07/24 00:34:24;;;;;;;;;;;;;;;26.55;51.60;99651.53;326549;29;2565;-77
2023/07/24 00:34:34;;;;;;;;;;;;;;;26.56;51.77;99650.53;325380;30;1742;-77
2023/07/24 00:34:45;;;;;;;;;;;;;;;26.58;51.81;99653.06;330164;29;1364;-77
2023/07/24 00:34:55;;;;;;;;;;;;;;;26.60;51.83;99646.50;326801;30;1429;-76
2023/07/24 00:35:05;;;;;;;;;;;;;;;26.61;51.72;99653.56;327668;29;1917;-76
2023/07/24 00:35:16;;;;;;;;;;;;;;;26.62;51.78;99649.88;330015;29;1212;-76
2023/07/24 00:35:26;;;;;;;;;;;;;;;26.65;51.78;99652.25;328939;29;2424;-77
2023/07/24 00:35:37;;;;;;;;;;;;;;;26.68;51.87;99653.75;325688;30;2601;-77
2023/07/24 00:35:47;;;;;;;;;;;;;;;26.70;51.55;99652.59;322417;30;3402;-79
2023/07/24 00:35:57;;;;;;;;;;;;;;;26.71;51.74;99658.78;322181;30;3094;-78
2023/07/24 00:36:07;;;;;;;;;;;;;;;26.68;51.82;99654.59;319789;30;3923;-77
2023/07/24 00:36:18;;;;;;;;;;;;;;;26.63;52.12;99656.94;319467;30;3258;-77
2023/07/24 00:36:28;;;;;;;;;;;;;;;26.59;52.51;99647.53;320880;30;3330;-77
2023/07/24 00:36:38;;;;;;;;;;;;;;;26.59;52.34;99654.72;320229;30;3079;-77
2023/07/24 00:36:48;;;;;;;;;;;;;;;26.58;52.46;99643.16;319539;30;2396;-77
2023/07/24 00:36:59;;;;;;;;;;;;;;;26.59;52.21;99650.22;316613;31;1380;-76
2023/07/24 00:37:09;;;;;;;;;;;;;;;26.61;52.21;99650.03;313945;31;2257;-77
2023/07/24 00:37:19;;;;;;;;;;;;;;;26.61;52.95;99650.88;313708;31;2708;-78
2023/07/24 00:37:29;;;;;;;;;;;;;;;26.52;53.41;99651.88;312008;31;1418;-78
2023/07/24 00:37:40;;;;;;;;;;;;;;;26.45;54.05;99648.16;308498;31;3639;-78
2023/07/24 00:37:50;;;;;;;;;;;;;;;26.39;54.41;99643.47;305056;31;3841;-78
2023/07/24 00:38:00;;;;;;;;;;;;;;;26.28;54.93;99646.41;306420;32;1391;-78
2023/07/24 00:38:10;;;;;;;;;;;;;;;26.12;55.87;99648.00;303365;32;4829;-78
2023/07/24 00:38:20;;;;;;;;;;;;;;;26.05;56.24;99640.75;302405;32;5504;-78
2023/07/24 00:38:31;;;;;;;;;;;;;;;25.95;56.79;99643.59;301826;32;1357;-78
2023/07/24 00:38:41;;;;;;;;;;;;;;;25.87;57.32;99640.88;304646;32;4023;-78
2023/07/24 00:38:51;;;;;;;;;;;;;;;25.87;57.22;99643.56;302065;32;4153;-78
2023/07/24 00:39:01;;;;;;;;;;;;;;;25.91;57.17;99641.38;300323;32;1317;-78
2023/07/24 00:39:13;;;;;;;;;;;;;;;25.94;56.88;99639.22;296694;33;1250;-78
2023/07/24 00:39:24;;;;;;;;;;;;;;;25.94;57.67;99641.91;296906;33;3286;-78
2023/07/24 00:39:34;;;;;;;;;;;;;;;25.89;57.94;99643.38;297023;32;4625;-78
2023/07/24 00:39:44;;;;;;;;;;;;;;;25.84;58.27;99643.88;298373;33;949;-78
2023/07/24 00:39:54;;;;;;;;;;;;;;;25.88;58.26;99641.72;291680;33;4970;-78
2023/07/24 00:40:05;;;;;;;;;;;;;;;25.89;58.11;99641.56;290230;33;5948;-78
2023/07/24 00:40:15;;;;;;;;;;;;;;;25.94;58.10;99643.75;295946;33;1374;-78
2023/07/24 00:40:25;;;;;;;;;;;;;;;25.94;57.96;99641.06;298238;32;6536;-77
2023/07/24 00:40:36;;;;;;;;;;;;;;;25.92;58.22;99641.22;296501;32;8057;-77
2023/07/24 00:40:46;;;;;;;;;;;;;;;25.92;58.46;99646.59;296129;33;1332;-77
2023/07/24 00:40:56;;;;;;;;;;;;;;;25.93;58.48;99642.06;298123;32;5537;-77
2023/07/24 00:41:06;;;;;;;;;;;;;;;25.89;58.82;99636.19;294920;33;5850;-77
2023/07/24 00:41:17;;;;;;;;;;;;;;;25.89;58.97;99644.22;293760;33;1300;-77
2023/07/24 00:41:29;;;;;;;;;;;;;;;25.89;58.99;99646.06;294090;33;1222;-77
2023/07/24 00:41:40;;;;;;;;;;;;;;;25.87;59.03;99640.88;294583;33;5773;-77
2023/07/24 00:41:50;;;;;;;;;;;;;;;25.81;59.19;99644.19;295161;32;7310;-77
2023/07/24 00:42:01;;;;;;;;;;;;;;;25.82;58.94;99645.88;297459;33;1276;-77
2023/07/24 00:42:11;;;;;;;;;;;;;;;25.83;59.25;99639.50;293365;33;7214;-77
2023/07/24 00:44:23;;;;;;;;;;;;;;;26.03;59.30;99646.28;2496872;27;19941;-79
2023/07/24 00:44:34;;;;;;;;;;;;;;;25.96;60.15;99647.97;354533;27;1401;-78
2023/07/24 00:44:44;;;;;;;;;;;;;;;25.97;59.94;99644.28;353326;28;1399;-78
2023/07/24 00:44:54;;;;;;;;;;;;;;;25.98;59.88;99650.47;352002;28;1211;-78
2023/07/24 00:45:04;;;;;;;;;;;;;;;25.97;59.86;99641.59;350471;28;1215;-78
2023/07/24 00:45:15;;;;;;;;;;;;;;;25.98;59.78;99642.44;349808;28;1377;-78
2023/07/24 00:45:25;;;;;;;;;;;;;;;26.00;59.57;99648.44;349847;28;2829;-78
2023/07/24 00:45:36;;;;;;;;;;;;;;;26.02;59.83;99644.59;348195;28;2720;-78
2023/07/24 00:45:46;;;;;;;;;;;;;;;26.04;59.37;99647.97;348898;28;5223;-78
2023/07/24 00:45:56;;;;;;;;;;;;;;;26.05;59.83;99648.81;351781;28;1329;-78
2023/07/24 00:46:06;;;;;;;;;;;;;;;26.03;59.96;99640.09;349483;28;3182;-78
2023/07/24 00:46:17;;;;;;;;;;;;;;;26.03;59.81;99643.59;349815;28;875;-78
2023/07/24 00:46:31;;;;;;;;;;;;;;;26.01;60.57;99640.25;351803;28;1310;-78
2023/07/24 00:46:42;;;;;;;;;;;;;;;25.93;61.72;99642.91;349100;28;1264;-78
2023/07/24 00:46:52;;;;;;;;;;;;;;;25.92;61.82;99645.75;348413;28;1227;-78
2023/07/24 00:47:02;;;;;;;;;;;;;;;25.93;62.32;99642.91;349254;28;784;-78
2023/07/24 00:47:13;;;;;;;;;;;;;;;25.92;62.12;99646.59;348281;28;1316;-78
2023/07/24 00:47:23;;;;;;;;;;;;;;;25.85;63.85;99642.88;349415;28;1563;-78
2023/07/24 00:47:33;;;;;;;;;;;;;;;25.72;64.90;99635.25;347939;28;1338;-78
2023/07/24 00:47:43;;;;;;;;;;;;;;;25.57;65.72;99638.63;348894;28;1147;-78
2023/07/24 00:47:53;;;;;;;;;;;;;;;25.51;66.20;99642.81;346646;28;1314;-78
2023/07/24 00:48:04;;;;;;;;;;;;;;;25.52;65.77;99642.66;347503;28;1313;-78
2023/07/24 00:48:14;;;;;;;;;;;;;;;25.57;66.02;99638.63;346159;28;1338;-78
2023/07/24 00:48:24;;;;;;;;;;;;;;;25.58;66.27;99637.63;344676;28;1358;-78
2023/07/24 00:48:36;;;;;;;;;;;;;;;25.60;66.15;99641.84;347391;28;915;-78
2023/07/24 00:48:46;;;;;;;;;;;;;;;25.56;66.76;99634.31;348234;28;1309;-77
2023/07/24 00:48:56;;;;;;;;;;;;;;;25.55;66.86;99638.81;347793;28;1295;-77
2023/07/24 00:49:07;;;;;;;;;;;;;;;25.49;67.12;99634.94;347740;28;875;-77
2023/07/24 00:49:17;;;;;;;;;;;;;;;25.42;67.51;99636.56;346499;28;1328;-78
2023/07/24 00:49:27;;;;;;;;;;;;;;;25.37;68.21;99638.03;344975;28;1307;-78
2023/07/24 00:49:37;;;;;;;;;;;;;;;25.29;68.46;99632.59;347818;28;1212;-78
2023/07/24 00:49:48;;;;;;;;;;;;;;;25.22;69.08;99636.88;350757;28;789;-78
2023/07/24 00:49:58;;;;;;;;;;;;;;;25.20;69.12;99634.38;347507;28;1212;-78
2023/07/24 00:50:09;;;;;;;;;;;;;;;25.20;69.18;99631.69;345026;28;1263;-78
2023/07/24 00:50:19;;;;;;;;;;;;;;;25.13;69.39;99633.31;346764;28;1095;-78
2023/07/24 00:50:29;;;;;;;;;;;;;;;25.10;69.29;99637.16;346509;28;1386;-78
2023/07/24 00:50:39;;;;;;;;;;;;;;;25.07;70.39;99641.97;345041;28;1306;-78
2023/07/24 00:50:50;;;;;;;;;;;;;;;25.05;70.09;99633.25;348346;28;1328;-77
2023/07/24 00:51:00;;;;;;;;;;;;;;;24.96;70.66;99634.19;343581;28;1283;-77
2023/07/24 00:51:10;;;;;;;;;;;;;;;24.97;70.39;99638.53;346430;28;1031;-77
2023/07/24 00:51:20;;;;;;;;;;;;;;;24.95;71.13;99640.50;347763;28;1224;-79
2023/07/24 00:51:31;;;;;;;;;;;;;;;24.94;71.17;99633.47;349180;28;816;-77
2023/07/24 00:51:41;;;;;;;;;;;;;;;24.92;71.29;99636.28;347954;28;792;-78
2023/07/24 00:51:51;;;;;;;;;;;;;;;24.89;71.42;99636.59;347632;28;1134;-78
2023/07/24 00:52:02;;;;;;;;;;;;;;;24.87;71.62;99633.22;345985;28;1559;-78
2023/07/24 00:52:12;;;;;;;;;;;;;;;24.91;71.53;99639.13;340948;28;1355;-78
2023/07/24 00:52:22;;;;;;;;;;;;;;;24.94;71.70;99638.81;346080;28;1217;-78
2023/07/24 00:52:32;;;;;;;;;;;;;;;24.98;71.66;99633.03;343273;28;1395;-78
2023/07/24 00:52:43;;;;;;;;;;;;;;;25.00;71.72;99644.44;343656;28;1314;-78
2023/07/24 00:52:53;;;;;;;;;;;;;;;24.98;71.79;99635.72;342417;28;1310;-78
2023/07/24 00:53:03;;;;;;;;;;;;;;;24.97;71.66;99639.38;343474;28;1657;-78
2023/07/24 00:53:14;;;;;;;;;;;;;;;24.98;71.99;99634.88;342358;28;1289;-78
2023/07/24 00:53:24;;;;;;;;;;;;;;;25.02;71.93;99631.72;342301;28;1190;-78
2023/07/24 00:53:34;;;;;;;;;;;;;;;25.01;71.93;99637.25;339595;29;1207;-78
2023/07/24 00:53:46;;;;;;;;;;;;;;;25.04;71.37;99640.44;339666;29;1239;-78
2023/07/24 00:54:00;;;;;;;;;;;;;;;25.01;71.86;99642.59;340054;29;829;-79
2023/07/24 00:54:10;;;;;;;;;;;;;;;25.06;71.63;99640.31;338518;29;825;-77
2023/07/24 00:54:20;;;;;;;;;;;;;;;25.11;71.53;99635.31;340196;28;1484;-77
2023/07/24 00:54:31;;;;;;;;;;;;;;;25.15;71.53;99644.69;338710;29;1707;-77
2023/07/24 00:54:41;;;;;;;;;;;;;;;25.12;71.43;99643.22;336944;29;3867;-78
2023/07/24 00:54:51;;;;;;;;;;;;;;;25.08;71.82;99646.34;337298;29;3039;-78
2023/07/24 00:55:01;;;;;;;;;;;;;;;25.07;71.97;99639.31;339222;29;3069;-78
2023/07/24 00:55:12;;;;;;;;;;;;;;;25.09;71.93;99653.38;338308;29;1277;-78
2023/07/24 00:55:22;;;;;;;;;;;;;;;25.02;72.37;99641.59;329541;29;3369;-78
2023/07/24 00:55:33;;;;;;;;;;;;;;;24.86;72.95;99640.41;328870;30;1698;-79
2023/07/24 00:55:43;;;;;;;;;;;;;;;24.78;73.49;99640.34;331143;29;1314;-79
2023/07/24 00:55:53;;;;;;;;;;;;;;;24.76;73.16;99636.97;329592;30;1278;-79
2023/07/24 00:56:04;;;;;;;;;;;;;;;24.82;73.36;99638.19;330217;29;1073;-79
2023/07/24 00:56:14;;;;;;;;;;;;;;;24.81;73.48;99640.03;330514;29;1382;-79
2023/07/24 00:56:24;;;;;;;;;;;;;;;24.83;73.57;99638.03;329707;30;871;-79
2023/07/24 00:56:34;;;;;;;;;;;;;;;24.82;73.31;99640.88;327073;30;2049;-79
2023/07/24 00:56:45;;;;;;;;;;;;;;;24.82;73.70;99647.06;323796;30;2411;-79
2023/07/24 00:56:55;;;;;;;;;;;;;;;24.86;73.38;99643.09;320314;30;1218;-79
2023/07/24 00:57:05;;;;;;;;;;;;;;;24.90;72.81;99642.78;318288;31;2504;-79
2023/07/24 00:57:16;;;;;;;;;;;;;;;24.93;73.22;99647.84;318783;30;2538;-79
2023/07/24 00:57:26;;;;;;;;;;;;;;;24.97;72.88;99639.38;319903;30;1412;-79
2023/07/24 00:57:36;;;;;;;;;;;;;;;25.02;72.88;99645.13;319805;30;2538;-79
2023/07/24 00:57:46;;;;;;;;;;;;;;;25.04;72.84;99639.63;318934;30;1863;-79
2023/07/24 00:58:00;;;;;;;;;;;;;;;25.04;72.61;99644.97;318931;31;852;-79
2023/07/24 00:58:10;;;;;;;;;;;;;;;25.03;72.78;99643.28;318773;31;1267;-79
2023/07/24 00:58:20;;;;;;;;;;;;;;;24.97;73.20;99643.91;321457;30;1582;-79
2023/07/24 00:58:31;;;;;;;;;;;;;;;24.90;73.55;99637.44;318827;30;2183;-79
2023/07/24 00:58:41;;;;;;;;;;;;;;;24.86;73.44;99640.41;317239;31;1293;-79
2023/07/24 00:58:51;;;;;;;;;;;;;;;24.87;73.39;99639.44;313513;31;2553;-79
2023/07/24 00:59:01;;;;;;;;;;;;;;;24.91;73.39;99639.13;314161;31;3182;-79
2023/07/24 00:59:12;;;;;;;;;;;;;;;24.93;73.44;99642.50;315522;31;1213;-79
2023/07/24 00:59:22;;;;;;;;;;;;;;;24.90;73.52;99635.59;316995;31;3374;-79